sensor_id;sensor_type;location;lat;lon;timestamp;P1;durP1;ratioP1;P2;durP2;ratioP2
62535;SDS011;63050;47.514;18.920;2023-07-20T00:04:48;7.00;;;3.10;;
62535;SDS011;63050;47.514;18.920;2023-07-20T00:09:49;5.20;;;2.70;;
62535;SDS011;63050;47.514;18.920;2023-07-20T00:14:50;5.40;;;2.80;;
62535;SDS011;63050;47.514;18.920;2023-07-20T00:19:54;4.80;;;2.90;;
62535;SDS011;63050;47.514;18.920;2023-07-20T00:24:55;5.40;;;3.10;;
62535;SDS011;63050;47.514;18.920;2023-07-20T00:29:56;4.20;;;2.50;;
62535;SDS011;63050;47.514;18.920;2023-07-20T00:34:56;5.40;;;2.80;;
62535;SDS011;63050;47.514;18.920;2023-07-20T00:39:57;6.20;;;2.60;;
62535;SDS011;63050;47.514;18.920;2023-07-20T00:44:59;6.10;;;3.30;;
62535;SDS011;63050;47.514;18.920;2023-07-20T00:50:00;5.50;;;3.10;;
62535;SDS011;63050;47.514;18.920;2023-07-20T00:55:06;8.30;;;3.50;;
62535;SDS011;63050;47.514;18.920;2023-07-20T01:00:08;20.90;;;6.50;;
62535;SDS011;63050;47.514;18.920;2023-07-20T01:05:09;6.20;;;3.00;;
62535;SDS011;63050;47.514;18.920;2023-07-20T01:10:11;16.60;;;4.90;;
62535;SDS011;63050;47.514;18.920;2023-07-20T01:15:14;8.50;;;3.90;;
62535;SDS011;63050;47.514;18.920;2023-07-20T01:20:15;5.90;;;3.70;;
62535;SDS011;63050;47.514;18.920;2023-07-20T01:36:00;7.30;;;3.40;;
62535;SDS011;63050;47.514;18.920;2023-07-20T01:41:03;6.90;;;3.10;;
62535;SDS011;63050;47.514;18.920;2023-07-20T01:46:04;6.40;;;3.10;;
62535;SDS011;63050;47.514;18.920;2023-07-20T01:51:05;5.00;;;2.80;;
62535;SDS011;63050;47.514;18.920;2023-07-20T01:56:06;6.10;;;3.20;;
62535;SDS011;63050;47.514;18.920;2023-07-20T02:01:06;7.30;;;3.00;;
62535;SDS011;63050;47.514;18.920;2023-07-20T02:06:07;6.00;;;2.70;;
62535;SDS011;63050;47.514;18.920;2023-07-20T02:11:08;6.20;;;2.90;;
62535;SDS011;63050;47.514;18.920;2023-07-20T02:16:10;4.10;;;2.60;;
62535;SDS011;63050;47.514;18.920;2023-07-20T02:21:11;8.30;;;3.40;;
62535;SDS011;63050;47.514;18.920;2023-07-20T02:26:12;4.70;;;2.80;;
62535;SDS011;63050;47.514;18.920;2023-07-20T02:31:13;5.00;;;2.80;;
62535;SDS011;63050;47.514;18.920;2023-07-20T02:36:14;7.10;;;3.00;;
62535;SDS011;63050;47.514;18.920;2023-07-20T02:41:17;5.60;;;3.00;;
62535;SDS011;63050;47.514;18.920;2023-07-20T02:46:18;6.20;;;3.50;;
62535;SDS011;63050;47.514;18.920;2023-07-20T02:51:19;7.10;;;3.00;;
62535;SDS011;63050;47.514;18.920;2023-07-20T02:56:20;4.90;;;3.00;;
62535;SDS011;63050;47.514;18.920;2023-07-20T03:01:21;5.70;;;3.30;;
62535;SDS011;63050;47.514;18.920;2023-07-20T03:06:22;6.40;;;3.40;;
62535;SDS011;63050;47.514;18.920;2023-07-20T03:11:23;5.20;;;3.20;;
62535;SDS011;63050;47.514;18.920;2023-07-20T03:16:24;6.10;;;3.10;;
62535;SDS011;63050;47.514;18.920;2023-07-20T03:21:26;7.40;;;3.30;;
62535;SDS011;63050;47.514;18.920;2023-07-20T03:26:27;5.30;;;3.30;;
62535;SDS011;63050;47.514;18.920;2023-07-20T03:31:29;6.70;;;3.00;;
62535;SDS011;63050;47.514;18.920;2023-07-20T03:36:30;4.30;;;3.00;;
62535;SDS011;63050;47.514;18.920;2023-07-20T03:41:32;6.60;;;2.80;;
62535;SDS011;63050;47.514;18.920;2023-07-20T03:46:32;6.30;;;2.70;;
62535;SDS011;63050;47.514;18.920;2023-07-20T03:51:34;6.80;;;3.10;;
62535;SDS011;63050;47.514;18.920;2023-07-20T03:56:36;5.20;;;3.00;;
62535;SDS011;63050;47.514;18.920;2023-07-20T04:01:37;6.60;;;3.00;;
62535;SDS011;63050;47.514;18.920;2023-07-20T04:06:40;5.40;;;2.80;;
62535;SDS011;63050;47.514;18.920;2023-07-20T04:11:41;6.90;;;3.30;;
62535;SDS011;63050;47.514;18.920;2023-07-20T04:16:42;4.30;;;2.90;;
62535;SDS011;63050;47.514;18.920;2023-07-20T04:21:43;4.70;;;2.70;;
62535;SDS011;63050;47.514;18.920;2023-07-20T04:26:44;5.00;;;3.20;;
62535;SDS011;63050;47.514;18.920;2023-07-20T04:31:45;5.20;;;2.90;;
62535;SDS011;63050;47.514;18.920;2023-07-20T04:36:46;4.10;;;2.50;;
62535;SDS011;63050;47.514;18.920;2023-07-20T04:41:47;5.00;;;2.70;;
62535;SDS011;63050;47.514;18.920;2023-07-20T04:46:50;6.00;;;3.40;;
62535;SDS011;63050;47.514;18.920;2023-07-20T04:51:51;5.40;;;3.30;;
62535;SDS011;63050;47.514;18.920;2023-07-20T04:56:52;4.60;;;2.80;;
62535;SDS011;63050;47.514;18.920;2023-07-20T05:01:55;5.60;;;3.10;;
62535;SDS011;63050;47.514;18.920;2023-07-20T05:06:55;4.50;;;2.90;;
62535;SDS011;63050;47.514;18.920;2023-07-20T05:11:57;6.10;;;3.00;;
62535;SDS011;63050;47.514;18.920;2023-07-20T05:16:58;4.80;;;2.90;;
62535;SDS011;63050;47.514;18.920;2023-07-20T05:21:59;8.00;;;3.30;;
62535;SDS011;63050;47.514;18.920;2023-07-20T05:27:00;8.50;;;3.50;;
62535;SDS011;63050;47.514;18.920;2023-07-20T05:32:00;4.60;;;2.80;;
62535;SDS011;63050;47.514;18.920;2023-07-20T05:37:01;5.50;;;3.20;;
62535;SDS011;63050;47.514;18.920;2023-07-20T05:42:02;4.30;;;2.90;;
62535;SDS011;63050;47.514;18.920;2023-07-20T05:47:03;6.60;;;3.60;;
62535;SDS011;63050;47.514;18.920;2023-07-20T05:52:04;4.30;;;3.30;;
62535;SDS011;63050;47.514;18.920;2023-07-20T05:57:05;4.80;;;3.20;;
62535;SDS011;63050;47.514;18.920;2023-07-20T06:02:06;6.20;;;3.30;;
62535;SDS011;63050;47.514;18.920;2023-07-20T06:07:08;6.70;;;3.30;;
62535;SDS011;63050;47.514;18.920;2023-07-20T06:12:09;5.50;;;3.50;;
62535;SDS011;63050;47.514;18.920;2023-07-20T06:17:11;5.80;;;3.30;;
62535;SDS011;63050;47.514;18.920;2023-07-20T06:22:12;6.30;;;3.60;;
62535;SDS011;63050;47.514;18.920;2023-07-20T06:27:13;5.80;;;3.60;;
62535;SDS011;63050;47.514;18.920;2023-07-20T06:32:14;6.00;;;3.60;;
62535;SDS011;63050;47.514;18.920;2023-07-20T06:37:15;7.50;;;3.30;;
62535;SDS011;63050;47.514;18.920;2023-07-20T06:42:16;6.70;;;3.20;;
62535;SDS011;63050;47.514;18.920;2023-07-20T06:47:17;4.20;;;3.70;;
62535;SDS011;63050;47.514;18.920;2023-07-20T06:52:18;5.50;;;3.60;;
62535;SDS011;63050;47.514;18.920;2023-07-20T06:57:19;5.30;;;3.40;;
62535;SDS011;63050;47.514;18.920;2023-07-20T07:02:20;4.60;;;3.40;;
62535;SDS011;63050;47.514;18.920;2023-07-20T07:07:21;4.80;;;3.40;;
62535;SDS011;63050;47.514;18.920;2023-07-20T07:12:22;3.90;;;3.10;;
62535;SDS011;63050;47.514;18.920;2023-07-20T07:17:23;7.00;;;3.30;;
62535;SDS011;63050;47.514;18.920;2023-07-20T07:22:24;5.00;;;2.90;;
62535;SDS011;63050;47.514;18.920;2023-07-20T07:27:26;3.70;;;2.70;;
62535;SDS011;63050;47.514;18.920;2023-07-20T07:32:26;5.00;;;2.60;;
62535;SDS011;63050;47.514;18.920;2023-07-20T07:37:27;5.60;;;2.50;;
62535;SDS011;63050;47.514;18.920;2023-07-20T07:42:29;6.90;;;3.30;;
62535;SDS011;63050;47.514;18.920;2023-07-20T07:47:29;4.20;;;3.20;;
62535;SDS011;63050;47.514;18.920;2023-07-20T07:52:30;4.30;;;2.90;;
62535;SDS011;63050;47.514;18.920;2023-07-20T07:57:32;4.60;;;2.50;;
62535;SDS011;63050;47.514;18.920;2023-07-20T08:02:34;4.30;;;2.50;;
62535;SDS011;63050;47.514;18.920;2023-07-20T08:07:36;6.20;;;2.70;;
62535;SDS011;63050;47.514;18.920;2023-07-20T08:12:37;4.50;;;2.40;;
62535;SDS011;63050;47.514;18.920;2023-07-20T08:17:38;5.60;;;2.30;;
62535;SDS011;63050;47.514;18.920;2023-07-20T08:22:39;3.60;;;2.30;;
62535;SDS011;63050;47.514;18.920;2023-07-20T08:27:40;3.50;;;1.90;;
62535;SDS011;63050;47.514;18.920;2023-07-20T08:32:41;6.70;;;2.50;;
62535;SDS011;63050;47.514;18.920;2023-07-20T08:37:42;4.10;;;1.90;;
62535;SDS011;63050;47.514;18.920;2023-07-20T08:42:43;3.50;;;1.90;;
62535;SDS011;63050;47.514;18.920;2023-07-20T08:47:44;6.40;;;2.00;;
62535;SDS011;63050;47.514;18.920;2023-07-20T08:52:45;4.30;;;1.90;;
62535;SDS011;63050;47.514;18.920;2023-07-20T08:57:46;5.30;;;2.00;;
62535;SDS011;63050;47.514;18.920;2023-07-20T09:02:52;4.00;;;1.90;;
62535;SDS011;63050;47.514;18.920;2023-07-20T09:07:53;4.60;;;2.10;;
62535;SDS011;63050;47.514;18.920;2023-07-20T09:12:54;3.70;;;1.70;;
62535;SDS011;63050;47.514;18.920;2023-07-20T09:17:56;5.80;;;2.20;;
62535;SDS011;63050;47.514;18.920;2023-07-20T09:22:56;5.80;;;2.00;;
62535;SDS011;63050;47.514;18.920;2023-07-20T09:28:01;4.10;;;1.90;;
62535;SDS011;63050;47.514;18.920;2023-07-20T09:33:03;6.30;;;2.30;;
62535;SDS011;63050;47.514;18.920;2023-07-20T09:38:03;3.10;;;1.80;;
62535;SDS011;63050;47.514;18.920;2023-07-20T09:43:07;5.30;;;2.00;;
62535;SDS011;63050;47.514;18.920;2023-07-20T09:48:09;6.80;;;1.80;;
62535;SDS011;63050;47.514;18.920;2023-07-20T09:53:11;5.90;;;1.90;;
62535;SDS011;63050;47.514;18.920;2023-07-20T09:58:16;5.50;;;2.10;;
62535;SDS011;63050;47.514;18.920;2023-07-20T10:03:19;4.40;;;1.70;;
62535;SDS011;63050;47.514;18.920;2023-07-20T10:08:22;8.50;;;2.40;;
62535;SDS011;63050;47.514;18.920;2023-07-20T10:13:26;7.10;;;2.10;;
62535;SDS011;63050;47.514;18.920;2023-07-20T10:18:35;3.70;;;1.70;;
62535;SDS011;63050;47.514;18.920;2023-07-20T10:23:42;6.40;;;2.50;;
62535;SDS011;63050;47.514;18.920;2023-07-20T10:28:43;3.40;;;1.70;;
62535;SDS011;63050;47.514;18.920;2023-07-20T10:33:45;5.30;;;2.10;;
62535;SDS011;63050;47.514;18.920;2023-07-20T10:43:48;4.80;;;1.80;;
62535;SDS011;63050;47.514;18.920;2023-07-20T10:48:59;4.00;;;1.60;;
62535;SDS011;63050;47.514;18.920;2023-07-20T11:04:37;3.30;;;2.00;;
62535;SDS011;63050;47.514;18.920;2023-07-20T11:09:38;8.20;;;2.10;;
62535;SDS011;63050;47.514;18.920;2023-07-20T11:15:01;4.00;;;1.90;;
62535;SDS011;63050;47.514;18.920;2023-07-20T11:20:01;4.10;;;1.90;;
62535;SDS011;63050;47.514;18.920;2023-07-20T11:25:04;2.60;;;1.60;;
62535;SDS011;63050;47.514;18.920;2023-07-20T11:30:14;3.50;;;1.60;;
62535;SDS011;63050;47.514;18.920;2023-07-20T11:35:16;2.60;;;1.50;;
62535;SDS011;63050;47.514;18.920;2023-07-20T11:40:17;6.10;;;1.60;;
62535;SDS011;63050;47.514;18.920;2023-07-20T11:45:19;6.20;;;1.80;;
62535;SDS011;63050;47.514;18.920;2023-07-20T11:50:20;2.90;;;1.50;;
62535;SDS011;63050;47.514;18.920;2023-07-20T11:55:21;6.10;;;2.00;;
62535;SDS011;63050;47.514;18.920;2023-07-20T12:00:24;3.90;;;1.60;;
62535;SDS011;63050;47.514;18.920;2023-07-20T12:05:25;7.10;;;1.70;;
62535;SDS011;63050;47.514;18.920;2023-07-20T12:10:27;3.70;;;1.80;;
62535;SDS011;63050;47.514;18.920;2023-07-20T12:15:29;4.50;;;1.70;;
62535;SDS011;63050;47.514;18.920;2023-07-20T12:25:38;5.40;;;1.80;;
62535;SDS011;63050;47.514;18.920;2023-07-20T12:30:43;3.20;;;1.50;;
62535;SDS011;63050;47.514;18.920;2023-07-20T12:35:45;4.60;;;1.60;;
62535;SDS011;63050;47.514;18.920;2023-07-20T12:40:46;1.90;;;1.20;;
62535;SDS011;63050;47.514;18.920;2023-07-20T12:45:47;4.00;;;1.30;;
62535;SDS011;63050;47.514;18.920;2023-07-20T12:50:48;5.60;;;1.70;;
62535;SDS011;63050;47.514;18.920;2023-07-20T12:55:49;3.80;;;1.70;;
62535;SDS011;63050;47.514;18.920;2023-07-20T13:00:51;3.40;;;1.70;;
62535;SDS011;63050;47.514;18.920;2023-07-20T13:05:51;5.40;;;1.40;;
62535;SDS011;63050;47.514;18.920;2023-07-20T13:10:52;3.80;;;1.40;;
62535;SDS011;63050;47.514;18.920;2023-07-20T13:15:54;5.20;;;1.70;;
62535;SDS011;63050;47.514;18.920;2023-07-20T13:20:55;4.00;;;1.60;;
62535;SDS011;63050;47.514;18.920;2023-07-20T13:25:56;3.20;;;1.40;;
62535;SDS011;63050;47.514;18.920;2023-07-20T13:30:57;2.50;;;1.30;;
62535;SDS011;63050;47.514;18.920;2023-07-20T13:35:58;2.10;;;1.40;;
62535;SDS011;63050;47.514;18.920;2023-07-20T13:40:59;2.90;;;1.30;;
62535;SDS011;63050;47.514;18.920;2023-07-20T13:46:00;5.40;;;1.60;;
62535;SDS011;63050;47.514;18.920;2023-07-20T13:51:01;2.90;;;1.30;;
62535;SDS011;63050;47.514;18.920;2023-07-20T13:56:02;3.00;;;1.70;;
62535;SDS011;63050;47.514;18.920;2023-07-20T14:01:04;5.00;;;1.40;;
62535;SDS011;63050;47.514;18.920;2023-07-20T14:06:05;3.40;;;1.40;;
62535;SDS011;63050;47.514;18.920;2023-07-20T14:11:06;5.40;;;1.50;;
62535;SDS011;63050;47.514;18.920;2023-07-20T14:16:07;3.60;;;1.60;;
62535;SDS011;63050;47.514;18.920;2023-07-20T14:21:08;3.40;;;1.40;;
62535;SDS011;63050;47.514;18.920;2023-07-20T14:26:09;3.10;;;1.50;;
62535;SDS011;63050;47.514;18.920;2023-07-20T14:31:10;3.80;;;1.50;;
62535;SDS011;63050;47.514;18.920;2023-07-20T14:36:11;5.70;;;1.40;;
62535;SDS011;63050;47.514;18.920;2023-07-20T14:41:13;4.90;;;1.20;;
62535;SDS011;63050;47.514;18.920;2023-07-20T14:46:14;2.20;;;1.30;;
62535;SDS011;63050;47.514;18.920;2023-07-20T14:51:15;2.70;;;1.30;;
62535;SDS011;63050;47.514;18.920;2023-07-20T14:56:15;3.20;;;1.20;;
62535;SDS011;63050;47.514;18.920;2023-07-20T15:01:16;3.10;;;1.30;;
62535;SDS011;63050;47.514;18.920;2023-07-20T15:06:17;2.70;;;1.50;;
62535;SDS011;63050;47.514;18.920;2023-07-20T15:11:18;2.20;;;1.20;;
62535;SDS011;63050;47.514;18.920;2023-07-20T15:16:19;2.50;;;1.40;;
62535;SDS011;63050;47.514;18.920;2023-07-20T15:21:20;2.90;;;1.40;;
62535;SDS011;63050;47.514;18.920;2023-07-20T15:26:23;3.80;;;1.60;;
62535;SDS011;63050;47.514;18.920;2023-07-20T15:31:24;3.10;;;1.50;;
62535;SDS011;63050;47.514;18.920;2023-07-20T15:36:26;3.10;;;1.40;;
62535;SDS011;63050;47.514;18.920;2023-07-20T15:41:27;2.50;;;1.30;;
62535;SDS011;63050;47.514;18.920;2023-07-20T15:51:41;3.30;;;1.30;;
62535;SDS011;63050;47.514;18.920;2023-07-20T15:56:43;2.60;;;1.30;;
62535;SDS011;63050;47.514;18.920;2023-07-20T16:01:44;4.00;;;1.60;;
62535;SDS011;63050;47.514;18.920;2023-07-20T16:06:45;2.80;;;1.30;;
62535;SDS011;63050;47.514;18.920;2023-07-20T16:11:46;4.30;;;1.40;;
62535;SDS011;63050;47.514;18.920;2023-07-20T16:16:48;2.80;;;1.30;;
62535;SDS011;63050;47.514;18.920;2023-07-20T16:21:48;7.00;;;1.90;;
62535;SDS011;63050;47.514;18.920;2023-07-20T16:26:49;5.60;;;1.50;;
62535;SDS011;63050;47.514;18.920;2023-07-20T16:31:51;3.80;;;1.70;;
62535;SDS011;63050;47.514;18.920;2023-07-20T16:36:52;4.70;;;1.50;;
62535;SDS011;63050;47.514;18.920;2023-07-20T16:41:56;5.30;;;1.50;;
62535;SDS011;63050;47.514;18.920;2023-07-20T16:46:57;2.60;;;1.80;;
62535;SDS011;63050;47.514;18.920;2023-07-20T16:51:58;5.40;;;1.70;;
62535;SDS011;63050;47.514;18.920;2023-07-20T16:56:59;2.10;;;1.40;;
62535;SDS011;63050;47.514;18.920;2023-07-20T17:01:59;7.60;;;1.80;;
62535;SDS011;63050;47.514;18.920;2023-07-20T17:07:00;3.90;;;1.70;;
62535;SDS011;63050;47.514;18.920;2023-07-20T17:12:01;4.40;;;1.70;;
62535;SDS011;63050;47.514;18.920;2023-07-20T17:17:03;4.20;;;1.60;;
62535;SDS011;63050;47.514;18.920;2023-07-20T17:22:04;3.80;;;1.60;;
62535;SDS011;63050;47.514;18.920;2023-07-20T17:27:05;5.00;;;1.60;;
62535;SDS011;63050;47.514;18.920;2023-07-20T17:32:07;2.80;;;1.60;;
62535;SDS011;63050;47.514;18.920;2023-07-20T17:37:08;5.00;;;1.60;;
62535;SDS011;63050;47.514;18.920;2023-07-20T17:42:09;3.00;;;1.70;;
62535;SDS011;63050;47.514;18.920;2023-07-20T17:47:11;3.10;;;1.50;;
62535;SDS011;63050;47.514;18.920;2023-07-20T17:52:13;3.20;;;1.80;;
62535;SDS011;63050;47.514;18.920;2023-07-20T17:57:14;6.60;;;2.00;;
62535;SDS011;63050;47.514;18.920;2023-07-20T18:02:16;2.70;;;1.60;;
62535;SDS011;63050;47.514;18.920;2023-07-20T18:07:17;2.90;;;1.70;;
62535;SDS011;63050;47.514;18.920;2023-07-20T18:12:18;4.90;;;1.90;;
62535;SDS011;63050;47.514;18.920;2023-07-20T18:17:20;4.90;;;1.90;;
62535;SDS011;63050;47.514;18.920;2023-07-20T18:22:22;4.00;;;1.50;;
62535;SDS011;63050;47.514;18.920;2023-07-20T18:27:23;5.50;;;1.60;;
62535;SDS011;63050;47.514;18.920;2023-07-20T18:32:24;5.40;;;1.80;;
62535;SDS011;63050;47.514;18.920;2023-07-20T18:37:25;4.60;;;1.60;;
62535;SDS011;63050;47.514;18.920;2023-07-20T18:42:28;3.20;;;1.80;;
62535;SDS011;63050;47.514;18.920;2023-07-20T18:47:30;2.80;;;1.60;;
62535;SDS011;63050;47.514;18.920;2023-07-20T18:52:32;3.60;;;1.90;;
62535;SDS011;63050;47.514;18.920;2023-07-20T18:57:33;4.50;;;1.50;;
62535;SDS011;63050;47.514;18.920;2023-07-20T19:02:36;4.00;;;2.00;;
62535;SDS011;63050;47.514;18.920;2023-07-20T19:07:37;3.30;;;1.50;;
62535;SDS011;63050;47.514;18.920;2023-07-20T19:12:40;4.80;;;2.00;;
62535;SDS011;63050;47.514;18.920;2023-07-20T19:17:42;4.30;;;1.90;;
62535;SDS011;63050;47.514;18.920;2023-07-20T19:22:43;4.30;;;2.00;;
62535;SDS011;63050;47.514;18.920;2023-07-20T19:27:44;4.30;;;1.90;;
62535;SDS011;63050;47.514;18.920;2023-07-20T19:32:46;4.10;;;2.40;;
62535;SDS011;63050;47.514;18.920;2023-07-20T19:37:48;5.20;;;1.90;;
62535;SDS011;63050;47.514;18.920;2023-07-20T19:42:51;5.40;;;2.00;;
62535;SDS011;63050;47.514;18.920;2023-07-20T19:47:55;5.10;;;2.10;;
62535;SDS011;63050;47.514;18.920;2023-07-20T19:52:58;4.40;;;2.20;;
62535;SDS011;63050;47.514;18.920;2023-07-20T19:58:00;5.50;;;2.20;;
62535;SDS011;63050;47.514;18.920;2023-07-20T20:03:05;3.60;;;1.90;;
62535;SDS011;63050;47.514;18.920;2023-07-20T20:08:06;2.30;;;1.80;;
62535;SDS011;63050;47.514;18.920;2023-07-20T20:13:09;6.30;;;1.90;;
62535;SDS011;63050;47.514;18.920;2023-07-20T20:18:11;2.70;;;1.80;;
62535;SDS011;63050;47.514;18.920;2023-07-20T20:23:17;3.10;;;1.80;;
62535;SDS011;63050;47.514;18.920;2023-07-20T20:28:21;5.60;;;2.00;;
62535;SDS011;63050;47.514;18.920;2023-07-20T20:33:24;3.80;;;1.80;;
62535;SDS011;63050;47.514;18.920;2023-07-20T20:38:26;4.60;;;2.00;;
62535;SDS011;63050;47.514;18.920;2023-07-20T20:43:28;4.50;;;2.10;;
62535;SDS011;63050;47.514;18.920;2023-07-20T20:48:30;4.00;;;2.10;;
62535;SDS011;63050;47.514;18.920;2023-07-20T20:53:36;3.90;;;2.40;;
62535;SDS011;63050;47.514;18.920;2023-07-20T20:58:38;4.00;;;1.80;;
62535;SDS011;63050;47.514;18.920;2023-07-20T21:03:40;3.70;;;2.10;;
62535;SDS011;63050;47.514;18.920;2023-07-20T21:08:40;3.40;;;1.90;;
62535;SDS011;63050;47.514;18.920;2023-07-20T21:13:41;2.70;;;1.50;;
62535;SDS011;63050;47.514;18.920;2023-07-20T21:18:44;3.10;;;1.50;;
62535;SDS011;63050;47.514;18.920;2023-07-20T21:23:44;4.50;;;2.10;;
62535;SDS011;63050;47.514;18.920;2023-07-20T21:28:45;9.80;;;1.90;;
62535;SDS011;63050;47.514;18.920;2023-07-20T21:33:46;2.90;;;1.70;;
62535;SDS011;63050;47.514;18.920;2023-07-20T21:38:47;3.30;;;1.90;;
62535;SDS011;63050;47.514;18.920;2023-07-20T21:43:48;2.70;;;1.90;;
62535;SDS011;63050;47.514;18.920;2023-07-20T21:48:49;3.60;;;2.00;;
62535;SDS011;63050;47.514;18.920;2023-07-20T21:53:49;2.90;;;1.40;;
62535;SDS011;63050;47.514;18.920;2023-07-20T21:58:50;5.30;;;2.00;;
62535;SDS011;63050;47.514;18.920;2023-07-20T22:03:51;2.90;;;1.70;;
62535;SDS011;63050;47.514;18.920;2023-07-20T22:08:52;2.60;;;1.50;;
62535;SDS011;63050;47.514;18.920;2023-07-20T22:13:53;3.30;;;1.80;;
62535;SDS011;63050;47.514;18.920;2023-07-20T22:18:54;2.50;;;1.30;;
62535;SDS011;63050;47.514;18.920;2023-07-20T22:23:55;2.90;;;1.60;;
62535;SDS011;63050;47.514;18.920;2023-07-20T22:28:56;2.80;;;1.90;;
62535;SDS011;63050;47.514;18.920;2023-07-20T22:33:57;3.60;;;1.90;;
62535;SDS011;63050;47.514;18.920;2023-07-20T22:38:58;4.90;;;1.70;;
62535;SDS011;63050;47.514;18.920;2023-07-20T22:43:58;2.80;;;1.50;;
62535;SDS011;63050;47.514;18.920;2023-07-20T22:49:00;2.50;;;1.50;;
62535;SDS011;63050;47.514;18.920;2023-07-20T22:54:00;3.90;;;1.60;;
62535;SDS011;63050;47.514;18.920;2023-07-20T22:59:01;2.10;;;1.40;;
62535;SDS011;63050;47.514;18.920;2023-07-20T23:04:02;2.40;;;1.60;;
62535;SDS011;63050;47.514;18.920;2023-07-20T23:09:03;2.40;;;1.70;;
62535;SDS011;63050;47.514;18.920;2023-07-20T23:14:04;2.10;;;1.50;;
62535;SDS011;63050;47.514;18.920;2023-07-20T23:19:06;2.60;;;1.60;;
62535;SDS011;63050;47.514;18.920;2023-07-20T23:24:07;2.80;;;1.70;;
62535;SDS011;63050;47.514;18.920;2023-07-20T23:29:09;3.50;;;1.50;;
62535;SDS011;63050;47.514;18.920;2023-07-20T23:34:10;2.80;;;1.80;;
62535;SDS011;63050;47.514;18.920;2023-07-20T23:39:11;2.80;;;1.70;;
62535;SDS011;63050;47.514;18.920;2023-07-20T23:44:13;2.50;;;1.50;;
62535;SDS011;63050;47.514;18.920;2023-07-20T23:49:14;2.80;;;1.70;;
62535;SDS011;63050;47.514;18.920;2023-07-20T23:54:14;3.80;;;1.40;;
62535;SDS011;63050;47.514;18.920;2023-07-20T23:59:16;2.90;;;1.80;;
